Latest Weather Observations for Central Arnhem Plateau

IDD60801

Issued at 8:01 pm CST Monday 27 March 2017 (issued every 30 minutes, with the page automatically refreshed every 10 minutes)

About weather observations | Map of weather stations | Latest weather observations for NT | Other Formats
Station Details ID: 014909 Name: CENTRAL ARNHEM PLATEAU Lat: -13.33 Lon: 133.09 Height: 416.0 m
Data from the previous 72 hours. | See also: Recent months at Central Arnhem Plateau
Date/Time
CST
Temp
°C
App
Temp
°C
Dew
Point
°C
Rel
Hum
%
Delta-T
°C
Wind Press
QNH
hPa
Press
MSL
hPa
Rain since
9am
mm
Dir  Spd
km/h
Gust
km/h
Spd
kts
Gust
kts
27/08:00pm 25.2 27.8 21.9 82 2.2 NNW 11 17 6 9 1012.3 1009.3 9.6
27/07:30pm 25.7 28.6 21.8 79 2.6 NNE 9 17 5 9 1011.7 1008.7 9.6
27/07:00pm 25.2 28.9 22.3 84 2.0 WNW 6 9 3 5 1010.7 1007.7 9.6
27/06:30pm 25.0 28.0 21.9 83 2.1 NNE 9 13 5 7 1010.3 1007.3 9.6
27/06:00pm 25.0 25.5 21.1 79 2.6 SSE 20 43 11 23 1010.3 1007.3 4.2
27/05:30pm 27.5 28.8 20.8 67 4.5 NNW 15 20 8 11 1009.2 1006.2 0.0
27/05:00pm 28.5 29.4 20.8 63 5.2 NNW 17 24 9 13 1009.3 1006.3 0.0
27/04:30pm 31.4 35.2 21.0 54 7.1 WSW 2 7 1 4 1009.1 1006.1 0.0
27/04:00pm 32.4 34.8 20.0 48 8.3 SSW 7 11 4 6 1009.2 1006.2 0.0
27/03:30pm 31.9 33.9 20.8 51 7.5 S 11 15 6 8 1009.5 1006.5 0.0
27/03:00pm 31.8 33.5 19.4 47 8.3 NW 9 17 5 9 1009.8 1006.8 0.0
27/02:30pm 31.8 34.7 21.0 52 7.4 W 7 11 4 6 1010.3 1007.3 0.0
27/02:00pm 31.3 33.5 19.6 49 7.8 W 7 15 4 8 1010.7 1007.7 0.0
27/01:30pm 31.0 33.2 21.2 56 6.7 WSW 11 17 6 9 1011.2 1008.3 0.0
27/01:00pm 30.5 32.5 20.7 55 6.6 W 11 20 6 11 1011.6 1008.6 0.0
27/12:30pm 29.9 31.1 20.7 57 6.2 WNW 15 24 8 13 1012.2 1009.2 0.0
27/12:00pm 29.8 31.3 20.6 57 6.2 WNW 13 20 7 11 1012.9 1009.9 0.0
27/11:30am 28.9 30.3 21.1 62 5.3 WNW 15 20 8 11 1013.1 1010.1 0.0
27/11:00am 28.7 30.4 21.7 66 4.8 WNW 15 22 8 12 1013.3 1010.3 0.0
27/10:30am 28.0 29.0 21.1 66 4.7 WNW 17 26 9 14 1013.6 1010.7 0.0
27/10:00am 27.2 28.4 21.5 71 3.9 WNW 17 24 9 13 1013.9 1010.9 0.0
27/09:30am 27.0 28.6 21.5 72 3.7 W 15 20 8 11 1013.7 1010.8 0.0
27/09:00am 26.6 27.9 21.6 74 3.4 WNW 17 22 9 12 1013.6 1010.7 0.0
27/08:30am 25.8 27.4 21.5 77 2.9 WNW 15 22 8 12 1013.6 1010.7 0.0
27/08:00am 25.1 27.4 22.0 83 2.1 WNW 13 20 7 11 1013.5 1010.6 0.0
27/07:30am 24.8 27.5 22.1 85 1.8 WNW 11 15 6 8 1013.3 1010.3 0.0
27/07:00am 24.7 27.8 22.2 86 1.7 WNW 9 15 5 8 1013.1 1010.1 0.0
27/06:30am 24.7 27.4 22.2 86 1.7 WNW 11 15 6 8 1013.0 1010.0 0.0
27/06:00am 24.8 27.5 22.1 85 1.8 WNW 11 17 6 9 1012.9 1009.9 0.0
27/05:30am 24.8 27.5 22.1 85 1.8 NW 11 15 6 8 1012.4 1009.4 0.0
27/05:00am 24.8 27.5 22.1 85 1.8 NW 11 15 6 8 1012.4 1009.4 0.0
27/04:30am 24.8 27.2 22.3 86 1.7 NW 13 17 7 9 1012.3 1009.3 0.0
27/04:00am 24.9 28.0 22.2 85 1.8 WNW 9 13 5 7 1012.3 1009.3 0.0
27/03:30am 25.0 28.3 21.9 83 2.1 NW 7 11 4 6 1012.6 1009.6 0.0
27/03:00am 25.2 27.5 22.1 83 2.1 NNW 13 17 7 9 1012.7 1009.7 0.0
27/02:30am 25.1 28.1 22.0 83 2.1 NW 9 13 5 7 1012.8 1009.8 0.0
27/02:00am 25.1 27.8 22.2 84 2.0 NW 11 17 6 9 1012.6 1009.6 0.0
27/01:30am 25.1 28.2 22.2 84 2.0 WNW 9 17 5 9 1012.9 1009.9 0.0
27/01:00am 24.9 26.8 22.0 84 2.0 NW 15 19 8 10 1013.1 1010.1 0.0
27/12:30am 25.1 27.7 22.0 83 2.1 NW 11 19 6 10 1013.6 1010.7 0.0
27/12:00am 25.2 27.9 22.1 83 2.1 NNW 11 15 6 8 1013.9 1010.9 0.0
 
Date/Time
CST
Temp
°C
App
Temp
°C
Dew
Point
°C
Rel
Hum
%
Delta-T
°C
Wind Press
QNH
hPa
Press
MSL
hPa
Rain since
9am
mm
Dir  Spd
km/h
Gust
km/h
Spd
kts
Gust
kts
26/11:30pm 25.4 28.1 22.1 82 2.2 NW 11 17 6 9 1014.1 1011.1 0.0
26/11:00pm 25.7 28.3 22.0 80 2.5 NW 11 15 6 8 1014.1 1011.1 0.0
26/10:30pm 25.9 28.2 22.0 79 2.6 NW 13 20 7 11 1013.7 1010.8 0.0
26/10:00pm 26.1 28.8 22.2 79 2.7 NW 11 17 6 9 1013.5 1010.6 0.0
26/09:30pm 26.1 28.5 22.2 79 2.7 NNW 13 17 7 9 1013.2 1010.2 0.0
26/09:00pm 26.4 28.3 22.0 77 3.0 NW 15 22 8 12 1012.9 1009.9 0.0
26/08:30pm 26.4 28.3 21.4 74 3.4 NW 13 20 7 11 1012.5 1009.5 0.0
26/08:00pm 27.0 28.2 21.5 72 3.7 NNW 17 24 9 13 1011.9 1008.9 0.0
26/07:30pm 28.3 30.3 21.6 67 4.6 NW 13 17 7 9 1011.4 1008.4 0.0
26/07:00pm 28.5 31.3 21.5 66 4.8 NNW 9 13 5 7 1010.7 1007.7 0.0
26/06:30pm 29.0 31.2 21.2 62 5.3 NNW 11 20 6 11 1010.4 1007.4 0.0
26/06:00pm 29.4 30.3 20.8 60 5.8 NNW 17 22 9 12 1009.9 1006.9 0.0
26/05:30pm 29.9 31.6 21.0 59 6.0 N 13 19 7 10 1009.5 1006.5 0.0
26/05:00pm 29.9 31.2 21.6 61 5.7 NNW 17 24 9 13 1009.2 1006.2 0.0
26/04:30pm 30.4 32.2 21.2 58 6.3 NNW 13 20 7 11 1008.9 1005.8 0.0
26/04:00pm 30.7 32.1 21.8 59 6.1 NW 17 22 9 12 1009.0 1005.9 0.0
26/03:30pm 30.4 31.3 20.9 57 6.4 NW 17 22 9 12 1009.2 1006.2 0.0
26/03:00pm 30.8 32.2 21.9 59 6.1 N 17 28 9 15 1009.4 1006.4 0.0
26/02:30pm 30.6 31.9 20.8 56 6.6 NNW 15 24 8 13 1009.7 1006.7 0.0
26/02:00pm 30.5 31.8 21.6 59 6.1 NNW 17 24 9 13 1010.1 1007.1 0.0
26/01:30pm 30.1 31.8 21.7 60 5.7 NNW 15 22 8 12 1010.4 1007.4 0.0
26/01:00pm 30.1 31.4 20.9 57 6.2 NNW 15 24 8 13 1010.9 1007.9 0.0
26/12:30pm 29.8 30.9 22.0 63 5.4 NNW 19 26 10 14 1011.4 1008.4 0.0
26/12:00pm 29.0 29.9 21.5 64 5.1 NNW 19 26 10 14 1012.0 1009.0 0.0
26/11:30am 28.7 29.8 21.2 64 5.1 NNW 17 28 9 15 1012.5 1009.5 0.0
26/11:00am 28.4 29.7 20.9 64 5.0 NNW 15 20 8 11 1012.9 1009.9 0.0
26/10:30am 27.9 29.4 21.2 67 4.5 N 15 20 8 11 1012.8 1009.8 0.0
26/10:00am 27.2 28.1 21.5 71 3.9 NNW 19 24 10 13 1012.8 1009.8 0.0
26/09:30am 27.1 28.3 21.4 71 3.9 NW 17 26 9 14 1012.8 1009.8 0.0
26/09:00am 26.6 28.2 21.4 73 3.5 NNW 15 20 8 11 1012.9 1009.9 5.4
26/08:30am 25.8 27.4 20.8 74 3.3 NNW 13 20 7 11 1012.7 1009.7 5.4
26/08:00am 25.0 27.0 21.5 81 2.4 N 13 19 7 10 1012.2 1009.2 5.4
26/07:30am 24.4 27.2 21.5 84 1.9 N 9 13 5 7 1012.0 1009.0 5.4
26/07:00am 23.9 26.6 21.4 86 1.7 N 9 15 5 8 1011.7 1008.7 5.4
26/06:30am 23.8 25.7 21.3 86 1.7 NNW 13 19 7 10 1011.4 1008.4 5.4
26/06:00am 23.6 26.3 21.3 87 1.5 N 9 13 5 7 1011.0 1008.0 5.4
26/05:30am 23.7 26.8 21.4 87 1.5 NNE 7 11 4 6 1010.7 1007.7 5.4
26/05:00am 23.8 26.9 21.5 87 1.5 NNE 7 9 4 5 1010.6 1007.6 5.4
26/04:30am 23.8 26.8 21.3 86 1.7 N 7 9 4 5 1010.3 1007.3 5.4
26/04:00am 23.8 27.8 21.3 86 1.7 N 2 7 1 4 1010.3 1007.3 5.4
26/03:30am 23.9 28.3 21.4 86 1.7 CALM 0 7 0 4 1010.7 1007.7 5.4
26/03:00am 23.8 26.9 21.1 85 1.8 N 6 9 3 5 1010.7 1007.7 5.4
26/02:30am 23.9 26.8 21.0 84 1.9 N 7 11 4 6 1010.9 1007.9 5.4
26/02:00am 23.8 26.5 20.7 83 2.1 N 7 9 4 5 1011.2 1008.3 5.4
26/01:30am 23.8 26.7 20.7 83 2.1 NE 6 7 3 4 1011.4 1008.4 5.4
26/01:00am 24.0 28.2 20.9 83 2.1 CALM 0 0 0 0 1012.2 1009.2 5.4
26/12:30am 24.0 26.8 20.5 81 2.3 N 6 7 3 4 1012.2 1009.2 5.4
26/12:00am 23.9 26.0 20.2 80 2.4 N 9 11 5 6 1012.4 1009.4 5.4
 
Date/Time
CST
Temp
°C
App
Temp
°C
Dew
Point
°C
Rel
Hum
%
Delta-T
°C
Wind Press
QNH
hPa
Press
MSL
hPa
Rain since
9am
mm
Dir  Spd
km/h
Gust
km/h
Spd
kts
Gust
kts
25/11:30pm 23.8 26.3 19.9 79 2.6 N 6 7 3 4 1012.2 1009.2 5.4
25/11:00pm 24.1 28.2 20.8 82 2.2 CALM 0 0 0 0 1012.2 1009.2 5.4
25/10:30pm 24.0 28.3 21.1 84 1.9 CALM 0 0 0 0 1012.1 1009.1 5.4
25/10:00pm 24.2 28.5 21.1 83 2.1 CALM 0 0 0 0 1011.9 1008.9 5.4
25/09:30pm 23.9 27.2 20.8 83 2.1 NE 4 7 2 4 1011.8 1008.8 5.4
25/09:00pm 24.1 27.1 20.8 82 2.2 NE 6 7 3 4 1011.6 1008.6 5.4
25/08:30pm 24.2 27.1 21.1 83 2.1 ENE 7 9 4 5 1010.9 1007.9 5.4
25/08:00pm 24.3 27.2 21.8 86 1.7 E 9 13 5 7 1010.3 1007.3 5.4
25/07:30pm 24.5 27.9 22.0 86 1.7 E 7 11 4 6 1010.2 1007.2 5.4
25/07:00pm 24.4 26.6 21.9 86 1.7 E 13 15 7 8 1010.0 1007.0 5.4
25/06:30pm 24.5 27.1 22.0 86 1.7 ESE 11 15 6 8 1009.8 1006.8 5.4
25/06:00pm 24.5 27.5 22.0 86 1.7 E 9 13 5 7 1009.7 1006.7 5.4
25/05:30pm 24.3 26.9 22.0 87 1.6 ENE 11 13 6 7 1010.0 1007.0 5.4
25/05:00pm 23.9 26.4 21.0 84 1.9 ESE 9 15 5 8 1009.8 1006.8 5.4
25/04:30pm 23.6 25.8 21.1 86 1.7 WNW 11 15 6 8 1009.7 1006.7 5.2
25/04:00pm 24.0 25.9 21.3 85 1.8 NNW 13 19 7 10 1009.4 1006.4 4.0
25/03:30pm 24.1 24.0 21.4 85 1.8 NNW 24 39 13 21 1009.4 1006.4 2.4
25/03:00pm 27.3 27.8 21.1 69 4.2 NNW 20 37 11 20 1009.2 1006.2 0.2
25/02:30pm 31.1 32.3 19.8 51 7.6 ENE 13 20 7 11 1008.7 1005.7 0.2
25/02:00pm 31.2 33.0 21.1 55 6.9 NNE 13 20 7 11 1008.9 1005.8 0.2
25/01:30pm 31.0 33.0 21.5 57 6.5 N 13 22 7 12 1009.7 1006.7 0.2
25/01:00pm 30.3 32.2 20.5 55 6.6 N 11 19 6 10 1010.3 1007.3 0.2
25/12:30pm 30.0 31.2 20.0 55 6.7 N 13 20 7 11 1010.9 1007.9 0.2
25/12:00pm 29.9 31.5 20.7 57 6.2 NNE 13 24 7 13 1011.4 1008.4 0.2
25/11:30am 29.3 31.5 21.8 64 5.1 N 13 20 7 11 1011.6 1008.6 0.2
25/11:00am 28.6 30.4 21.9 67 4.6 N 15 22 8 12 1011.8 1008.8 0.0
25/10:30am 27.8 29.2 21.8 70 4.1 N 17 26 9 14 1011.8 1008.8 0.0
25/10:00am 27.8 28.8 22.1 71 3.9 NNE 20 26 11 14 1011.7 1008.7 0.0
25/09:30am 26.9 28.5 22.1 75 3.3 N 17 22 9 12 1011.6 1008.6 0.0
25/09:00am 26.3 28.0 21.7 76 3.1 N 15 22 8 12 1011.4 1008.4 4.0
25/08:30am 25.5 27.9 22.2 82 2.2 NNE 13 19 7 10 1010.8 1007.8 4.0
25/08:00am 25.1 27.4 22.0 83 2.1 NNE 13 17 7 9 1010.2 1007.2 4.0
25/07:30am 24.7 27.7 22.0 85 1.8 NE 9 13 5 7 1010.0 1007.0 4.0
25/07:00am 24.5 27.5 22.0 86 1.7 NNE 9 13 5 7 1010.1 1007.1 4.0
25/06:30am 24.3 27.2 21.8 86 1.7 NNE 9 13 5 7 1010.1 1007.1 4.0
25/06:00am 24.5 27.5 22.0 86 1.7 NE 9 11 5 6 1009.8 1006.8 4.0
25/05:30am 24.5 27.4 21.8 85 1.8 N 9 15 5 8 1009.9 1006.9 4.0
25/05:00am 24.7 27.8 22.2 86 1.7 N 9 13 5 7 1010.1 1007.1 4.0
25/04:30am 24.7 28.2 22.2 86 1.7 N 7 9 4 5 1010.0 1007.0 4.0
25/04:00am 24.7 27.9 22.4 87 1.6 NNE 9 13 5 7 1009.8 1006.8 4.0
25/03:30am 24.8 27.6 22.3 86 1.7 NNE 11 15 6 8 1009.9 1006.9 4.0
25/03:00am 24.8 28.1 22.5 87 1.6 NNE 9 13 5 7 1010.1 1007.1 4.0
25/02:30am 24.6 28.5 22.5 88 1.4 N 6 9 3 5 1010.1 1007.1 4.0
25/02:00am 24.6 28.3 22.5 88 1.4 ENE 7 7 4 4 1009.9 1006.9 4.0
25/01:30am 24.4 28.0 22.1 87 1.6 ESE 6 7 3 4 1010.4 1007.4 4.0
25/01:00am 24.6 28.2 22.3 87 1.6 ESE 7 11 4 6 1010.8 1007.8 4.0
25/12:30am 24.9 28.2 22.6 87 1.6 SE 9 11 5 6 1011.4 1008.4 4.0
25/12:00am 25.1 29.4 22.6 86 1.7 S 4 7 2 4 1011.8 1008.8 3.8
 
Date/Time
CST
Temp
°C
App
Temp
°C
Dew
Point
°C
Rel
Hum
%
Delta-T
°C
Wind Press
QNH
hPa
Press
MSL
hPa
Rain since
9am
mm
Dir  Spd
km/h
Gust
km/h
Spd
kts
Gust
kts
24/11:30pm 24.7 29.5 22.2 86 1.7 CALM 0 4 0 2 1012.0 1009.0 3.6
24/11:00pm 24.9 28.6 22.2 85 1.8 WNW 6 7 3 4 1012.2 1009.2 3.2
24/10:30pm 25.1 30.0 22.4 85 1.8 CALM 0 6 0 3 1012.3 1009.3 2.8
24/10:00pm 24.9 28.6 22.2 85 1.8 NNW 6 9 3 5 1012.2 1009.2 2.2
24/09:30pm 25.0 29.7 21.9 83 2.1 CALM 0 9 0 5 1011.9 1008.9 1.6
24/09:00pm 25.5 28.9 21.6 79 2.6 NW 6 13 3 7 1011.2 1008.3 1.0
24/08:30pm 25.8 28.8 20.1 71 3.8 E 4 13 2 7 1010.9 1007.9 1.0

Other Formats:

Comma delimited format used in spreadsheet applications
http://www.bom.gov.au/fwo/IDD60801/IDD60801.94141.axf

JavaScript Object Notation format (JSON) in row-major order
http://www.bom.gov.au/fwo/IDD60801/IDD60801.94141.json